Time;durP1;ratioP1;P1;durP2;ratioP2;P2;SDS_P1;SDS_P2;PMS_P1;PMS_P2;Temp;Humidity;BMP_temperature;BMP_pressure;BME280_temperature;BME280_humidity;BME280_pressure;Samples;Min_cycle;Max_cycle;Signal;HPM_P1;HPM_P2
2023/05/26 00:01:07;;;;;;;13.90;2.47;;;9.70;99.90;;;;;;5118688;27;20054;-75
2023/05/26 00:03:34;;;;;;;11.95;2.70;;;9.70;99.90;;;;;;5136966;27;20095;-74
2023/05/26 00:06:00;;;;;;;12.88;2.50;;;9.70;99.90;;;;;;5136833;27;20043;-74
2023/05/26 00:08:26;;;;;;;16.55;2.30;;;9.70;99.90;;;;;;5118696;27;20138;-75
2023/05/26 00:10:52;;;;;;;12.50;2.63;;;9.60;99.90;;;;;;5136758;27;20130;-75
2023/05/26 00:13:18;;;;;;;14.13;2.33;;;9.60;99.90;;;;;;5136999;27;20084;-75
2023/05/26 00:15:43;;;;;;;11.55;2.63;;;9.60;99.90;;;;;;5137356;27;20402;-75
2023/05/26 00:18:09;;;;;;;14.77;2.97;;;9.60;99.90;;;;;;5136711;27;20130;-74
2023/05/26 00:20:35;;;;;;;9.32;1.85;;;9.60;99.90;;;;;;5136553;27;20050;-74
2023/05/26 00:23:01;;;;;;;14.15;2.55;;;9.60;99.90;;;;;;5136892;27;20047;-75
2023/05/26 00:25:26;;;;;;;6.88;1.98;;;9.60;99.90;;;;;;5118503;27;20470;-74
2023/05/26 00:27:53;;;;;;;10.50;2.13;;;9.60;99.90;;;;;;5101699;27;20050;-74
2023/05/26 00:30:19;;;;;;;8.23;1.88;;;9.60;99.90;;;;;;5136510;27;20053;-74
2023/05/26 00:32:44;;;;;;;13.88;3.25;;;9.60;99.90;;;;;;5136969;27;20047;-75
2023/05/26 00:35:10;;;;;;;12.35;2.58;;;9.50;99.90;;;;;;5136900;27;20056;-75
2023/05/26 00:37:36;;;;;;;10.35;2.22;;;9.50;99.90;;;;;;5136280;27;20146;-75
2023/05/26 00:40:02;;;;;;;9.20;2.00;;;9.50;99.90;;;;;;5136672;27;20039;-74
2023/05/26 00:42:27;;;;;;;9.77;2.47;;;9.50;99.90;;;;;;5100925;27;20039;-74
2023/05/26 00:44:53;;;;;;;12.98;2.15;;;9.50;99.90;;;;;;5136122;27;20039;-74
2023/05/26 00:47:19;;;;;;;12.45;2.80;;;9.50;99.90;;;;;;5118143;27;20118;-75
2023/05/26 00:49:45;;;;;;;16.08;2.80;;;9.50;99.90;;;;;;5135990;27;20088;-75
2023/05/26 00:52:12;;;;;;;9.60;2.25;;;9.40;99.90;;;;;;5136273;27;20127;-75
2023/05/26 00:54:42;;;;;;;12.88;1.85;;;9.40;99.90;;;;;;5136395;27;20047;-75
2023/05/26 00:57:08;;;;;;;15.30;2.58;;;9.40;99.90;;;;;;5118408;27;20450;-74
2023/05/26 00:59:34;;;;;;;13.48;2.45;;;9.40;99.90;;;;;;5135861;27;20039;-74
2023/05/26 01:02:00;;;;;;;12.32;2.60;;;9.40;99.90;;;;;;5117377;27;20039;-75
2023/05/26 01:04:27;;;;;;;10.90;2.60;;;9.40;99.90;;;;;;5117596;27;20100;-74
2023/05/26 01:06:52;;;;;;;16.90;2.97;;;9.40;99.90;;;;;;5117499;27;20050;-75
2023/05/26 01:09:19;;;;;;;18.92;2.90;;;9.40;99.90;;;;;;5135850;27;20059;-74
2023/05/26 01:11:51;;;;;;;13.23;2.65;;;9.40;99.90;;;;;;5117394;27;20050;-74
2023/05/26 01:14:34;;;;;;;11.70;2.40;;;9.30;99.90;;;;;;5136493;27;20143;-76
2023/05/26 01:17:05;;;;;;;8.45;2.13;;;9.40;99.90;;;;;;5117398;27;20141;-75
2023/05/26 01:19:56;;;;;;;15.43;2.92;;;9.40;99.90;;;;;;5135780;27;20066;-74
2023/05/26 01:22:33;;;;;;;13.30;3.15;;;9.40;99.90;;;;;;5117075;27;20046;-75
2023/05/26 01:25:25;;;;;;;11.30;2.47;;;9.40;99.90;;;;;;5135034;27;20111;-75
2023/05/26 01:28:06;;;;;;;14.95;2.28;;;9.40;99.90;;;;;;5135398;27;20050;-75
2023/05/26 01:30:34;;;;;;;9.55;2.22;;;9.30;99.90;;;;;;5135299;27;20100;-74
2023/05/26 01:33:00;;;;;;;13.80;2.50;;;9.30;99.90;;;;;;5135216;27;20092;-75
2023/05/26 01:35:26;;;;;;;11.05;2.10;;;9.30;99.90;;;;;;5135498;27;20047;-74
2023/05/26 01:37:52;;;;;;;12.55;2.38;;;9.40;99.90;;;;;;5135401;27;20046;-75
2023/05/26 01:40:19;;;;;;;15.15;2.78;;;9.30;99.90;;;;;;5099380;27;20091;-74
2023/05/26 01:42:55;;;;;;;13.32;2.58;;;9.30;99.90;;;;;;5135131;27;20043;-74
2023/05/26 01:45:24;;;;;;;14.15;2.50;;;9.30;99.90;;;;;;5135669;27;20054;-74
2023/05/26 01:47:54;;;;;;;12.45;2.33;;;9.30;99.90;;;;;;5116925;27;20368;-74
2023/05/26 01:50:26;;;;;;;12.82;2.47;;;9.30;99.90;;;;;;5135012;27;20148;-74
2023/05/26 01:52:56;;;;;;;11.70;2.75;;;9.20;99.90;;;;;;5134999;27;20082;-74
2023/05/26 01:55:24;;;;;;;13.82;2.90;;;9.20;99.90;;;;;;5135186;27;20559;-74
2023/05/26 01:57:51;;;;;;;10.95;2.28;;;9.20;99.90;;;;;;5116753;27;20425;-74
2023/05/26 02:00:26;;;;;;;10.70;2.35;;;9.20;99.90;;;;;;5134803;27;20106;-74
2023/05/26 02:02:52;;;;;;;8.18;2.10;;;9.20;99.90;;;;;;5117563;27;20498;-74
2023/05/26 02:05:18;;;;;;;12.75;2.25;;;9.20;99.90;;;;;;5100009;28;20047;-74
2023/05/26 02:07:45;;;;;;;14.60;2.30;;;9.20;99.90;;;;;;5116611;28;20043;-74
2023/05/26 02:10:11;;;;;;;9.20;2.90;;;9.20;99.90;;;;;;5134922;27;20118;-74
2023/05/26 02:12:37;;;;;;;15.85;2.53;;;9.20;99.90;;;;;;5134707;28;20149;-74
2023/05/26 02:15:03;;;;;;;11.13;2.50;;;9.10;99.90;;;;;;5135216;28;20130;-74
2023/05/26 02:17:29;;;;;;;12.10;2.58;;;9.20;99.90;;;;;;5099659;28;20147;-74
2023/05/26 02:19:54;;;;;;;15.30;3.22;;;9.20;99.90;;;;;;5134676;28;20078;-74
2023/05/26 02:22:20;;;;;;;12.02;2.25;;;9.10;99.90;;;;;;5135142;28;20047;-74
2023/05/26 02:24:46;;;;;;;11.05;2.40;;;9.10;99.90;;;;;;5134622;28;20051;-75
2023/05/26 02:27:11;;;;;;;12.68;2.10;;;9.10;99.90;;;;;;5116464;28;20086;-74
2023/05/26 02:29:37;;;;;;;14.15;2.97;;;9.10;99.90;;;;;;5099332;28;20074;-75
2023/05/26 02:32:03;;;;;;;10.20;2.42;;;9.10;99.90;;;;;;5134874;28;20039;-74
2023/05/26 02:34:29;;;;;;;11.77;2.28;;;9.10;99.90;;;;;;5134550;28;20051;-74
2023/05/26 02:36:55;;;;;;;12.38;2.72;;;9.10;99.90;;;;;;5099391;28;20082;-74
2023/05/26 02:39:24;;;;;;;12.30;2.40;;;9.10;99.90;;;;;;5116115;28;20471;-74
2023/05/26 02:41:51;;;;;;;14.52;2.80;;;9.10;99.90;;;;;;5116118;28;20035;-74
2023/05/26 02:44:17;;;;;;;13.23;2.63;;;9.10;99.90;;;;;;5134426;28;20087;-74
2023/05/26 02:46:42;;;;;;;12.93;2.20;;;9.10;99.90;;;;;;5135222;28;20077;-74
2023/05/26 02:49:08;;;;;;;9.57;2.25;;;9.10;99.90;;;;;;5116282;28;20088;-74
2023/05/26 02:51:35;;;;;;;10.57;2.38;;;9.10;99.90;;;;;;5116001;28;20059;-74
2023/05/26 02:54:01;;;;;;;13.68;3.05;;;9.00;99.90;;;;;;5100068;28;20122;-74
2023/05/26 02:56:26;;;;;;;12.77;3.05;;;9.00;99.90;;;;;;5134301;28;20149;-74
2023/05/26 02:58:52;;;;;;;12.80;3.00;;;9.00;99.90;;;;;;5115916;28;20039;-74
2023/05/26 03:01:18;;;;;;;14.93;2.30;;;9.10;99.90;;;;;;5135014;28;20035;-74
2023/05/26 03:03:43;;;;;;;16.58;3.20;;;9.00;99.90;;;;;;5116587;28;20050;-74
2023/05/26 03:06:09;;;;;;;12.93;2.55;;;9.00;99.90;;;;;;5116197;28;20050;-74
2023/05/26 03:08:37;;;;;;;14.25;2.63;;;9.00;99.90;;;;;;5133829;28;20047;-82
2023/05/26 03:11:03;;;;;;;11.95;2.30;;;9.00;99.90;;;;;;5099457;28;20070;-75
2023/05/26 03:13:29;;;;;;;15.15;2.67;;;9.00;99.90;;;;;;5115981;28;20043;-74
2023/05/26 03:15:55;;;;;;;10.45;2.30;;;9.00;99.90;;;;;;5115872;28;20130;-74
2023/05/26 03:18:20;;;;;;;12.98;2.58;;;9.00;99.90;;;;;;5116577;27;20035;-74
2023/05/26 03:20:46;;;;;;;14.60;2.50;;;9.00;99.90;;;;;;5102560;27;20096;-74
2023/05/26 03:23:14;;;;;;;11.52;2.03;;;9.00;99.90;;;;;;5119430;27;20096;-74
2023/05/26 03:25:41;;;;;;;12.25;2.20;;;9.00;99.90;;;;;;5137795;27;20051;-74
2023/05/26 03:28:06;;;;;;;13.25;2.40;;;8.90;99.90;;;;;;5119567;27;20059;-74
2023/05/26 03:30:32;;;;;;;13.48;2.47;;;8.90;99.90;;;;;;5119553;27;20166;-74
2023/05/26 03:32:58;;;;;;;10.82;2.45;;;8.80;99.90;;;;;;5137581;27;20085;-74
2023/05/26 03:35:23;;;;;;;12.80;2.13;;;8.90;99.90;;;;;;5119399;27;20039;-74
2023/05/26 03:37:49;;;;;;;12.57;2.20;;;8.90;99.90;;;;;;5137493;27;20166;-74
2023/05/26 03:40:15;;;;;;;18.23;2.35;;;8.90;99.90;;;;;;5102232;27;20043;-74
2023/05/26 03:42:40;;;;;;;13.00;2.80;;;8.90;99.90;;;;;;5137411;27;20368;-74
2023/05/26 03:45:07;;;;;;;12.43;2.90;;;8.90;99.90;;;;;;5137281;27;20050;-74
2023/05/26 03:47:32;;;;;;;12.50;2.63;;;8.80;99.90;;;;;;5137252;27;20086;-74
2023/05/26 03:49:58;;;;;;;11.02;2.08;;;8.80;99.90;;;;;;5118968;27;20096;-74
2023/05/26 03:52:25;;;;;;;10.90;2.33;;;8.80;99.90;;;;;;5137267;27;20039;-74
2023/05/26 03:54:50;;;;;;;19.35;2.28;;;8.80;99.90;;;;;;5119339;27;20047;-74
2023/05/26 03:57:16;;;;;;;13.63;2.92;;;8.80;99.90;;;;;;5118983;27;20078;-74
2023/05/26 03:59:42;;;;;;;12.10;2.45;;;8.80;99.90;;;;;;5118784;27;20043;-74
2023/05/26 04:02:08;;;;;;;9.38;2.08;;;8.80;99.90;;;;;;5137522;27;20122;-74
2023/05/26 04:04:34;;;;;;;11.02;1.95;;;8.80;99.90;;;;;;5119323;27;20451;-74
2023/05/26 04:07:00;;;;;;;9.73;2.05;;;8.80;99.90;;;;;;5119109;27;20126;-74
2023/05/26 04:09:26;;;;;;;12.07;2.22;;;8.80;99.90;;;;;;5136843;27;20122;-74
2023/05/26 04:11:52;;;;;;;10.80;2.25;;;8.80;99.90;;;;;;5136837;27;20047;-74
2023/05/26 04:14:17;;;;;;;10.02;2.08;;;8.80;99.90;;;;;;5136776;27;20043;-74
2023/05/26 04:16:43;;;;;;;11.43;2.35;;;8.80;99.90;;;;;;5118548;27;20051;-74
2023/05/26 04:19:09;;;;;;;9.98;2.28;;;8.80;99.90;;;;;;5136697;27;20118;-74
2023/05/26 04:21:36;;;;;;;9.82;2.30;;;8.80;99.90;;;;;;5118981;27;20039;-74
2023/05/26 04:24:02;;;;;;;14.25;2.28;;;9.00;99.90;;;;;;5098109;28;20052;-74
2023/05/26 04:26:33;;;;;;;9.80;2.30;;;8.90;99.90;;;;;;5115998;28;20043;-74
2023/05/26 04:29:00;;;;;;;14.57;2.45;;;8.90;99.90;;;;;;5114918;28;20107;-73
2023/05/26 04:31:28;;;;;;;12.23;2.22;;;8.90;99.90;;;;;;5113822;28;20602;-74
2023/05/26 04:33:56;;;;;;;10.18;1.88;;;8.90;99.90;;;;;;5098842;28;20115;-74
2023/05/26 04:36:25;;;;;;;12.20;2.65;;;9.00;99.90;;;;;;5115764;28;20070;-74
2023/05/26 04:38:51;;;;;;;13.10;2.40;;;9.00;99.90;;;;;;5097955;28;20050;-74
2023/05/26 04:41:18;;;;;;;8.15;2.08;;;9.00;99.90;;;;;;5115851;28;20493;-74
2023/05/26 04:43:45;;;;;;;6.95;2.47;;;9.00;99.90;;;;;;5115652;28;20108;-74
2023/05/26 04:46:11;;;;;;;9.43;2.42;;;9.10;99.90;;;;;;5114409;28;20036;-74
2023/05/26 04:48:37;;;;;;;11.13;1.85;;;9.10;99.90;;;;;;5114612;28;20050;-74
2023/05/26 04:51:04;;;;;;;12.35;1.92;;;9.10;99.90;;;;;;5114337;28;20079;-74
2023/05/26 04:53:30;;;;;;;10.73;2.00;;;9.20;99.90;;;;;;5115428;28;20054;-74
2023/05/26 04:56:00;;;;;;;13.05;2.83;;;9.20;99.90;;;;;;5114254;28;20047;-73
2023/05/26 04:58:25;;;;;;;12.55;2.20;;;9.20;99.90;;;;;;5115434;28;20051;-74
2023/05/26 05:00:51;;;;;;;16.63;2.50;;;9.20;99.90;;;;;;5113772;28;20031;-74
2023/05/26 05:03:17;;;;;;;11.50;2.38;;;9.30;99.90;;;;;;5115792;27;20109;-74
2023/05/26 05:05:42;;;;;;;16.77;2.53;;;9.30;99.90;;;;;;5115301;28;20067;-74
2023/05/26 05:08:09;;;;;;;11.95;3.08;;;9.30;99.90;;;;;;5115204;28;20051;-73
2023/05/26 05:10:34;;;;;;;15.27;2.30;;;9.40;99.90;;;;;;5080255;28;20043;-73
2023/05/26 05:13:00;;;;;;;12.63;3.13;;;9.30;99.90;;;;;;5115098;28;20123;-74
2023/05/26 05:15:26;;;;;;;10.73;2.28;;;9.40;99.90;;;;;;5114802;28;20046;-74
2023/05/26 05:17:52;;;;;;;9.38;2.17;;;9.40;99.90;;;;;;5097881;28;20047;-74
2023/05/26 05:20:18;;;;;;;11.57;2.60;;;9.50;99.90;;;;;;5115397;28;20043;-74
2023/05/26 05:22:44;;;;;;;13.25;2.38;;;9.50;99.90;;;;;;5113738;28;20039;-74
2023/05/26 05:25:09;;;;;;;14.10;2.60;;;9.50;99.90;;;;;;5134966;27;20125;-74
2023/05/26 05:27:35;;;;;;;12.50;2.50;;;9.60;99.90;;;;;;5117270;27;20043;-74
2023/05/26 05:30:01;;;;;;;11.38;2.20;;;9.60;99.90;;;;;;5083424;27;20047;-73
2023/05/26 05:32:27;;;;;;;18.48;2.70;;;9.70;99.90;;;;;;5135288;27;20047;-74
2023/05/26 05:34:52;;;;;;;13.38;2.90;;;9.90;99.90;;;;;;5084120;27;20043;-73
2023/05/26 05:37:18;;;;;;;10.40;2.03;;;9.80;99.90;;;;;;5135439;27;20047;-73
2023/05/26 05:39:44;;;;;;;15.15;2.60;;;9.80;99.90;;;;;;5117604;27;20047;-73
2023/05/26 05:42:09;;;;;;;9.73;2.40;;;9.90;99.90;;;;;;5135538;27;20358;-73
2023/05/26 05:44:35;;;;;;;12.02;2.40;;;9.90;99.90;;;;;;5100951;27;20082;-73
2023/05/26 05:47:01;;;;;;;14.32;2.70;;;10.00;99.90;;;;;;5135378;27;20040;-73
2023/05/26 05:49:26;;;;;;;12.60;2.75;;;10.10;99.90;;;;;;5117662;27;20091;-75
2023/05/26 05:51:52;;;;;;;10.07;2.20;;;10.10;99.90;;;;;;5134900;27;20047;-73
2023/05/26 05:54:18;;;;;;;7.57;2.45;;;10.20;99.90;;;;;;5116723;27;20080;-74
2023/05/26 05:56:44;;;;;;;10.60;1.90;;;10.20;99.90;;;;;;5099769;27;20047;-74
2023/05/26 05:59:10;;;;;;;12.10;2.10;;;10.30;99.90;;;;;;5135371;27;20040;-74
2023/05/26 06:01:36;;;;;;;10.02;2.47;;;10.30;99.90;;;;;;5099631;28;20487;-74
2023/05/26 06:04:02;;;;;;;14.15;2.53;;;10.30;99.90;;;;;;5135369;27;20050;-74
2023/05/26 06:06:28;;;;;;;18.17;2.60;;;10.40;99.90;;;;;;5135354;27;20047;-73
2023/05/26 06:08:54;;;;;;;12.50;2.85;;;10.40;99.90;;;;;;5099776;28;20055;-75
2023/05/26 06:11:21;;;;;;;9.75;1.98;;;10.50;99.90;;;;;;5099322;28;20368;-75
2023/05/26 06:13:46;;;;;;;13.45;2.72;;;10.50;99.90;;;;;;5116594;28;20051;-74
2023/05/26 06:16:12;;;;;;;16.08;3.00;;;10.50;99.90;;;;;;5116259;28;20046;-74
2023/05/26 06:18:38;;;;;;;12.52;2.25;;;10.60;99.90;;;;;;5134618;28;20043;-74
2023/05/26 06:21:04;;;;;;;10.68;2.83;;;10.60;99.90;;;;;;5134568;28;20043;-74
2023/05/26 06:23:30;;;;;;;12.40;2.10;;;10.70;99.90;;;;;;5134506;28;20142;-74
2023/05/26 06:25:55;;;;;;;17.20;2.28;;;10.70;99.90;;;;;;5134622;28;20095;-74
2023/05/26 06:28:22;;;;;;;12.65;2.58;;;10.80;99.90;;;;;;5116276;28;20093;-74
2023/05/26 06:30:48;;;;;;;10.13;1.67;;;10.80;99.90;;;;;;5082862;28;20095;-74
2023/05/26 06:33:13;;;;;;;10.55;2.22;;;10.90;99.90;;;;;;5116217;28;20047;-75
2023/05/26 06:35:39;;;;;;;13.82;2.22;;;10.90;99.90;;;;;;5134459;28;20047;-74
2023/05/26 06:38:05;;;;;;;11.43;2.20;;;11.00;99.90;;;;;;5134530;28;20482;-74
2023/05/26 06:40:31;;;;;;;9.55;1.90;;;10.90;99.90;;;;;;5099186;28;20047;-76
2023/05/26 06:42:56;;;;;;;12.05;2.58;;;11.00;99.90;;;;;;5116305;28;20046;-76
2023/05/26 06:45:22;;;;;;;9.27;2.20;;;11.00;99.90;;;;;;5116269;28;20047;-76
2023/05/26 06:47:48;;;;;;;7.07;1.60;;;11.00;99.90;;;;;;5116118;28;20185;-75
2023/05/26 06:50:14;;;;;;;15.15;2.45;;;11.00;99.90;;;;;;5116298;28;20055;-76
2023/05/26 06:52:39;;;;;;;15.52;2.25;;;11.00;99.90;;;;;;5134370;27;20043;-75
2023/05/26 06:55:05;;;;;;;9.35;1.92;;;11.00;99.90;;;;;;5137849;27;20047;-74
2023/05/26 06:57:31;;;;;;;11.82;2.38;;;10.90;99.90;;;;;;5138890;27;20095;-77
2023/05/26 06:59:57;;;;;;;9.70;1.65;;;11.00;99.90;;;;;;5120170;27;20042;-76
2023/05/26 07:02:22;;;;;;;12.18;2.42;;;11.00;99.90;;;;;;5119796;27;20050;-75
2023/05/26 07:04:48;;;;;;;11.02;2.03;;;11.00;99.90;;;;;;5119894;27;20047;-76
2023/05/26 07:07:13;;;;;;;16.60;2.25;;;11.00;99.90;;;;;;5138705;27;20050;-76
2023/05/26 07:09:39;;;;;;;7.78;1.75;;;11.10;99.90;;;;;;5120268;27;20039;-76
2023/05/26 07:12:06;;;;;;;12.55;1.67;;;11.10;99.90;;;;;;5102527;27;20050;-75
2023/05/26 07:14:32;;;;;;;10.68;1.80;;;11.20;99.90;;;;;;5119900;27;20387;-79
2023/05/26 07:16:58;;;;;;;7.40;1.65;;;11.20;99.90;;;;;;5119850;27;20043;-75
2023/05/26 07:19:23;;;;;;;9.38;1.52;;;11.30;99.90;;;;;;5137962;27;20391;-78
2023/05/26 07:21:49;;;;;;;8.95;1.77;;;11.40;99.90;;;;;;5137681;27;20126;-76
2023/05/26 07:24:15;;;;;;;10.00;1.58;;;11.40;99.90;;;;;;5119358;27;20050;-75
2023/05/26 07:26:41;;;;;;;12.63;2.20;;;11.50;99.90;;;;;;5137978;27;20501;-75
2023/05/26 07:29:06;;;;;;;5.80;1.65;;;11.50;99.90;;;;;;5119557;27;20432;-75
2023/05/26 07:31:33;;;;;;;10.70;1.67;;;11.50;99.90;;;;;;5119353;27;20035;-76
2023/05/26 07:33:59;;;;;;;9.88;1.42;;;11.60;99.90;;;;;;5119394;27;20058;-75
2023/05/26 07:36:25;;;;;;;8.00;1.50;;;11.70;99.90;;;;;;5137540;27;20041;-75
2023/05/26 07:38:51;;;;;;;4.47;1.02;;;11.70;99.90;;;;;;5137505;27;20122;-76
2023/05/26 07:41:17;;;;;;;6.82;1.52;;;11.80;99.90;;;;;;5118977;27;20493;-75
2023/05/26 07:43:42;;;;;;;12.35;1.70;;;11.80;99.90;;;;;;5137420;27;20039;-76
2023/05/26 07:46:08;;;;;;;5.57;1.40;;;11.80;99.90;;;;;;5119879;27;20386;-76
2023/05/26 07:48:34;;;;;;;7.05;1.40;;;11.90;99.90;;;;;;5137331;27;20043;-76
2023/05/26 07:50:59;;;;;;;5.35;1.73;;;11.90;99.90;;;;;;5137288;27;20046;-75
2023/05/26 07:53:25;;;;;;;6.03;1.67;;;12.00;99.90;;;;;;5119552;27;20043;-78
2023/05/26 07:55:51;;;;;;;8.50;1.45;;;12.10;99.90;;;;;;5118841;27;20051;-78
2023/05/26 07:58:17;;;;;;;4.18;1.13;;;12.10;99.90;;;;;;5137635;27;20051;-77
2023/05/26 08:00:43;;;;;;;7.53;1.55;;;12.20;99.90;;;;;;5137068;27;20039;-79
2023/05/26 08:03:08;;;;;;;11.13;2.28;;;12.20;99.90;;;;;;5136682;27;20047;-78
2023/05/26 08:05:34;;;;;;;8.68;1.50;;;12.30;99.90;;;;;;5137382;27;20100;-77
2023/05/26 08:08:00;;;;;;;7.72;1.95;;;12.40;99.90;;;;;;5136987;27;20051;-79
2023/05/26 08:10:26;;;;;;;6.78;2.00;;;12.40;99.90;;;;;;5136846;27;20097;-77
2023/05/26 08:12:52;;;;;;;8.40;2.20;;;12.40;99.90;;;;;;5136895;27;20045;-78
2023/05/26 08:15:20;;;;;;;5.28;1.38;;;12.50;99.90;;;;;;5118959;27;20455;-76
2023/05/26 08:17:47;;;;;;;7.18;1.40;;;12.50;99.90;;;;;;5118493;27;20051;-77
2023/05/26 08:20:13;;;;;;;7.20;1.83;;;12.60;99.90;;;;;;5136772;27;20043;-77
2023/05/26 08:22:39;;;;;;;7.05;1.60;;;12.60;99.90;;;;;;5136599;27;20159;-73
2023/05/26 08:25:05;;;;;;;7.78;2.08;;;12.70;99.90;;;;;;5118319;27;20137;-77
2023/05/26 08:27:31;;;;;;;10.18;1.92;;;12.80;99.90;;;;;;5118252;27;20043;-76
2023/05/26 08:29:57;;;;;;;7.25;1.17;;;12.80;99.90;;;;;;5101399;27;20059;-76
2023/05/26 08:32:23;;;;;;;9.55;1.52;;;12.90;99.90;;;;;;5101380;27;20040;-76
2023/05/26 08:34:49;;;;;;;7.75;1.48;;;12.90;99.90;;;;;;5101267;27;20051;-76
2023/05/26 08:37:16;;;;;;;8.13;1.83;;;13.00;99.90;;;;;;5118050;27;20039;-76
2023/05/26 08:39:43;;;;;;;6.00;1.40;;;13.00;99.90;;;;;;5136228;27;20054;-77
2023/05/26 08:42:15;;;;;;;6.38;2.03;;;13.10;99.90;;;;;;5136207;27;20469;-78
2023/05/26 08:44:44;;;;;;;3.05;1.02;;;13.10;99.90;;;;;;5136382;27;20147;-79
2023/05/26 08:47:11;;;;;;;8.95;1.58;;;13.10;99.90;;;;;;5136162;27;20079;-77
2023/05/26 08:49:41;;;;;;;6.00;1.40;;;13.10;99.90;;;;;;5117727;27;20055;-75
2023/05/26 08:52:16;;;;;;;8.90;1.48;;;13.10;99.90;;;;;;5136113;27;20043;-78
2023/05/26 08:54:43;;;;;;;11.40;1.60;;;13.20;99.90;;;;;;5101229;27;20391;-78
2023/05/26 08:57:10;;;;;;;7.60;1.35;;;13.20;99.90;;;;;;5135978;27;20043;-76
2023/05/26 08:59:37;;;;;;;10.82;2.25;;;13.20;99.90;;;;;;5117546;27;20050;-78
2023/05/26 09:02:03;;;;;;;7.32;1.60;;;13.30;99.90;;;;;;5117517;27;20043;-75
2023/05/26 09:04:30;;;;;;;7.43;1.65;;;13.30;99.90;;;;;;5135877;27;20413;-75
2023/05/26 09:06:56;;;;;;;6.50;1.63;;;13.40;99.90;;;;;;5135786;27;20126;-76
2023/05/26 09:09:23;;;;;;;8.82;1.10;;;13.50;99.90;;;;;;5135649;27;20043;-73
2023/05/26 09:11:48;;;;;;;6.85;1.70;;;13.40;99.90;;;;;;5117514;27;20039;-76
2023/05/26 09:14:16;;;;;;;9.20;1.67;;;13.50;99.90;;;;;;5135356;27;20373;-77
2023/05/26 09:16:42;;;;;;;7.57;1.85;;;13.50;99.90;;;;;;5100384;27;20047;-76
2023/05/26 09:19:14;;;;;;;6.72;1.90;;;13.50;99.90;;;;;;5135139;27;20122;-77
2023/05/26 09:21:46;;;;;;;7.53;1.50;;;13.50;99.90;;;;;;5136362;27;20100;-76
2023/05/26 09:24:15;;;;;;;7.38;1.85;;;13.60;99.90;;;;;;5117391;27;20058;-77
2023/05/26 09:26:41;;;;;;;7.20;1.60;;;13.70;99.90;;;;;;5117358;27;20043;-77
2023/05/26 09:29:07;;;;;;;7.40;1.50;;;13.80;99.90;;;;;;5100280;27;20512;-77
2023/05/26 09:31:49;;;;;;;8.65;1.42;;;13.80;99.90;;;;;;5117235;27;20074;-77
2023/05/26 09:34:17;;;;;;;7.03;1.30;;;13.90;99.90;;;;;;5135948;27;20043;-75
2023/05/26 09:36:43;;;;;;;8.07;1.48;;;13.90;99.90;;;;;;5135234;27;20047;-76
2023/05/26 09:39:13;;;;;;;6.85;1.17;;;13.90;99.90;;;;;;5135182;27;20092;-78
2023/05/26 09:41:46;;;;;;;7.55;1.50;;;13.90;99.90;;;;;;5135098;27;20502;-75
2023/05/26 09:44:11;;;;;;;6.15;1.27;;;13.90;99.90;;;;;;5135153;27;20386;-76
2023/05/26 09:46:38;;;;;;;5.75;1.40;;;13.90;99.90;;;;;;5135135;27;20069;-76
2023/05/26 09:49:18;;;;;;;7.63;1.17;;;13.90;99.90;;;;;;5116997;27;20123;-74
2023/05/26 09:51:49;;;;;;;7.72;1.40;;;13.90;99.90;;;;;;5116998;27;20371;-78
2023/05/26 09:54:16;;;;;;;7.05;1.70;;;13.90;99.90;;;;;;5135043;27;20567;-75
2023/05/26 09:56:44;;;;;;;6.50;1.42;;;14.00;99.90;;;;;;5116937;27;20046;-74
2023/05/26 09:59:13;;;;;;;7.07;1.48;;;14.00;99.90;;;;;;5134923;27;20045;-74
2023/05/26 10:01:40;;;;;;;7.40;1.55;;;14.10;99.90;;;;;;5134812;27;20122;-76
2023/05/26 10:04:07;;;;;;;6.03;1.48;;;14.10;99.90;;;;;;5134810;27;20046;-74
2023/05/26 10:06:37;;;;;;;8.68;1.50;;;14.10;99.90;;;;;;5116748;27;20376;-76
2023/05/26 10:09:05;;;;;;;6.25;1.38;;;14.20;99.90;;;;;;5117543;28;20429;-75
2023/05/26 10:11:33;;;;;;;7.22;1.48;;;14.30;99.90;;;;;;5082854;28;20051;-73
2023/05/26 10:14:00;;;;;;;6.38;1.38;;;14.40;99.90;;;;;;5135310;27;20043;-74
2023/05/26 10:16:26;;;;;;;8.77;1.70;;;14.40;99.90;;;;;;5117457;28;20403;-76
2023/05/26 10:18:52;;;;;;;7.40;1.45;;;14.40;99.90;;;;;;5134653;28;20057;-75
2023/05/26 10:21:23;;;;;;;6.18;1.35;;;14.50;99.90;;;;;;5134556;28;20078;-76
2023/05/26 10:24:31;;;;;;;8.25;1.30;;;14.60;99.90;;;;;;5116827;28;20151;-87
2023/05/26 10:27:20;;;;;;;5.90;1.48;;;14.60;99.90;;;;;;5116304;28;20134;-78
2023/05/26 10:29:57;;;;;;;5.10;1.45;;;14.60;99.90;;;;;;5137591;27;20130;-77
2023/05/26 10:32:46;;;;;;;5.95;1.42;;;14.50;99.90;;;;;;5139496;27;20043;-77
2023/05/26 10:35:32;;;;;;;9.57;1.80;;;14.50;99.90;;;;;;5139364;27;20044;-78
2023/05/26 10:38:11;;;;;;;8.40;1.58;;;14.50;99.90;;;;;;5139264;27;20039;-76
2023/05/26 10:40:49;;;;;;;8.95;1.80;;;14.40;99.90;;;;;;5138618;27;20083;-76
2023/05/26 10:43:25;;;;;;;6.47;1.67;;;14.40;99.90;;;;;;5138637;27;20047;-76
2023/05/26 10:46:02;;;;;;;7.97;1.20;;;14.50;99.90;;;;;;5139117;27;20047;-76
2023/05/26 10:48:38;;;;;;;11.27;1.67;;;14.50;99.90;;;;;;5138833;27;20039;-76
2023/05/26 10:51:14;;;;;;;7.22;1.85;;;14.60;99.90;;;;;;5138510;27;20099;-80
2023/05/26 10:53:41;;;;;;;9.13;1.70;;;14.60;99.90;;;;;;5138524;27;20508;-83
2023/05/26 10:56:11;;;;;;;7.20;1.50;;;14.70;99.90;;;;;;5120504;27;20103;-78
2023/05/26 10:58:45;;;;;;;7.95;1.45;;;14.70;99.90;;;;;;5138612;27;20047;-78
2023/05/26 11:01:15;;;;;;;6.55;1.50;;;14.70;99.90;;;;;;5139072;27;20179;-78
2023/05/26 11:03:41;;;;;;;10.20;1.67;;;14.80;99.90;;;;;;5119971;27;20039;-78
2023/05/26 11:06:08;;;;;;;12.02;2.17;;;14.80;99.90;;;;;;5120340;27;20364;-77
2023/05/26 11:08:36;;;;;;;6.88;1.50;;;14.80;99.90;;;;;;5119846;27;20054;-76
2023/05/26 11:11:04;;;;;;;10.98;1.88;;;14.80;99.90;;;;;;5138040;27;20047;-80
2023/05/26 11:13:47;;;;;;;10.07;2.38;;;14.80;99.90;;;;;;5138015;27;20395;-73
2023/05/26 11:16:37;;;;;;;7.85;1.83;;;14.80;99.90;;;;;;5119857;27;20479;-76
2023/05/26 11:19:05;;;;;;;8.23;2.15;;;14.80;99.90;;;;;;5109551;27;20140;-77
2023/05/26 11:21:33;;;;;;;9.82;1.75;;;14.80;99.90;;;;;;5119462;27;20050;-81
2023/05/26 11:24:00;;;;;;;6.93;1.73;;;14.80;99.90;;;;;;5137876;27;20116;-76
2023/05/26 11:26:30;;;;;;;10.48;2.40;;;14.80;99.90;;;;;;5138357;27;20176;-80
2023/05/26 11:28:57;;;;;;;11.05;2.13;;;14.80;99.90;;;;;;5119457;27;20117;-79
2023/05/26 11:31:26;;;;;;;10.07;2.25;;;14.80;99.90;;;;;;5138502;27;20039;-84
2023/05/26 11:33:53;;;;;;;8.35;1.98;;;14.80;99.90;;;;;;5102555;27;20511;-76
2023/05/26 11:36:20;;;;;;;8.75;1.77;;;14.80;99.90;;;;;;5119726;27;20130;-78
2023/05/26 11:38:49;;;;;;;9.15;1.77;;;14.80;99.90;;;;;;5102188;27;20049;-73
2023/05/26 11:41:15;;;;;;;8.90;1.90;;;14.90;99.90;;;;;;5119282;27;20050;-78
2023/05/26 11:43:44;;;;;;;9.02;1.77;;;14.90;99.90;;;;;;5119151;27;20047;-77
2023/05/26 11:46:12;;;;;;;10.95;2.22;;;14.90;99.90;;;;;;5137391;27;20039;-79
2023/05/26 11:48:40;;;;;;;9.90;2.03;;;14.90;99.90;;;;;;5137300;27;20050;-80
2023/05/26 11:51:20;;;;;;;10.55;1.95;;;14.90;99.90;;;;;;5137400;27;20079;-78
2023/05/26 11:53:47;;;;;;;5.97;1.98;;;15.00;99.90;;;;;;5102937;27;20054;-77
2023/05/26 11:56:16;;;;;;;12.82;1.90;;;15.00;99.90;;;;;;5119101;27;20054;-77
2023/05/26 11:58:53;;;;;;;9.20;2.35;;;15.00;99.90;;;;;;5119873;27;20047;-76
2023/05/26 12:01:21;;;;;;;7.55;1.70;;;14.90;99.90;;;;;;5137896;27;20035;-78
2023/05/26 12:03:49;;;;;;;9.73;2.20;;;14.90;99.90;;;;;;5137073;27;20089;-77
2023/05/26 12:06:21;;;;;;;9.80;1.85;;;14.90;99.90;;;;;;5137041;27;20051;-79
2023/05/26 12:08:59;;;;;;;10.43;2.53;;;15.00;99.90;;;;;;5101374;27;20126;-74
2023/05/26 12:11:33;;;;;;;7.53;1.90;;;15.00;99.90;;;;;;5136785;27;20083;-77
2023/05/26 12:14:04;;;;;;;9.82;2.35;;;15.00;99.90;;;;;;5136932;27;20050;-80
2023/05/26 12:16:38;;;;;;;11.45;2.42;;;15.00;99.90;;;;;;5101829;27;20047;-79
2023/05/26 12:19:06;;;;;;;9.98;2.10;;;15.00;99.90;;;;;;5137417;27;20047;-77
2023/05/26 12:21:43;;;;;;;8.57;1.83;;;15.10;99.90;;;;;;5118452;27;20043;-78
2023/05/26 12:24:09;;;;;;;9.02;1.42;;;15.10;99.90;;;;;;5136921;27;20055;-79
2023/05/26 12:26:36;;;;;;;9.45;1.70;;;15.10;99.90;;;;;;5118752;27;20093;-78
2023/05/26 12:29:10;;;;;;;9.77;1.98;;;15.10;99.90;;;;;;5136619;27;20073;-76
2023/05/26 12:31:48;;;;;;;7.30;2.08;;;15.10;99.90;;;;;;5118415;27;20054;-74
2023/05/26 12:34:19;;;;;;;8.98;1.92;;;15.30;99.90;;;;;;5101022;27;20099;-81
2023/05/26 12:36:45;;;;;;;7.53;1.88;;;15.30;99.90;;;;;;5118611;27;20532;-78
2023/05/26 12:39:16;;;;;;;10.05;2.10;;;15.30;99.90;;;;;;5101567;27;20490;-76
2023/05/26 12:41:42;;;;;;;10.65;2.30;;;15.30;99.90;;;;;;5118811;27;20047;-77
2023/05/26 12:44:08;;;;;;;9.32;1.83;;;15.30;99.90;;;;;;5118166;27;20050;-78
2023/05/26 12:46:34;;;;;;;7.60;2.03;;;15.20;99.90;;;;;;5136209;27;20135;-77
2023/05/26 12:49:01;;;;;;;7.93;2.00;;;15.20;99.90;;;;;;5100838;27;20058;-77